sensor_id;sensor_type;location;lat;lon;timestamp;P1;durP1;ratioP1;P2;durP2;ratioP2
21000;SDS011;10658;50.920;12.238;2022-09-12T00:01:32;8.27;;;6.50;;
21000;SDS011;10658;50.920;12.238;2022-09-12T00:05:33;7.15;;;6.05;;
21000;SDS011;10658;50.920;12.238;2022-09-12T00:09:40;9.23;;;6.10;;
21000;SDS011;10658;50.920;12.238;2022-09-12T00:13:41;8.93;;;5.80;;
21000;SDS011;10658;50.920;12.238;2022-09-12T00:17:43;8.95;;;5.90;;
21000;SDS011;10658;50.920;12.238;2022-09-12T00:21:44;6.65;;;5.30;;
21000;SDS011;10658;50.920;12.238;2022-09-12T00:25:46;9.75;;;6.82;;
21000;SDS011;10658;50.920;12.238;2022-09-12T00:29:48;8.48;;;5.85;;
21000;SDS011;10658;50.920;12.238;2022-09-12T00:33:49;6.25;;;5.40;;
21000;SDS011;10658;50.920;12.238;2022-09-12T00:37:52;6.68;;;4.60;;
21000;SDS011;10658;50.920;12.238;2022-09-12T00:41:52;7.82;;;5.20;;
21000;SDS011;10658;50.920;12.238;2022-09-12T00:45:53;6.25;;;4.85;;
21000;SDS011;10658;50.920;12.238;2022-09-12T00:50:04;10.00;;;5.72;;
21000;SDS011;10658;50.920;12.238;2022-09-12T00:54:13;15.43;;;5.63;;
21000;SDS011;10658;50.920;12.238;2022-09-12T00:58:19;30.48;;;7.07;;
21000;SDS011;10658;50.920;12.238;2022-09-12T01:02:24;15.80;;;5.97;;
21000;SDS011;10658;50.920;12.238;2022-09-12T01:06:27;11.88;;;5.40;;
21000;SDS011;10658;50.920;12.238;2022-09-12T01:10:36;10.75;;;5.20;;
21000;SDS011;10658;50.920;12.238;2022-09-12T01:14:40;19.55;;;5.05;;
21000;SDS011;10658;50.920;12.238;2022-09-12T01:18:49;5.25;;;4.07;;
21000;SDS011;10658;50.920;12.238;2022-09-12T01:36:19;16.98;;;5.90;;
21000;SDS011;10658;50.920;12.238;2022-09-12T01:40:31;5.57;;;4.10;;
21000;SDS011;10658;50.920;12.238;2022-09-12T01:54:23;5.88;;;3.95;;
21000;SDS011;10658;50.920;12.238;2022-09-12T01:58:40;13.45;;;4.68;;
21000;SDS011;10658;50.920;12.238;2022-09-12T02:02:46;4.45;;;4.05;;
21000;SDS011;10658;50.920;12.238;2022-09-12T02:07:22;6.90;;;4.05;;
21000;SDS011;10658;50.920;12.238;2022-09-12T02:11:46;6.13;;;3.70;;
21000;SDS011;10658;50.920;12.238;2022-09-12T02:15:51;6.60;;;4.05;;
21000;SDS011;10658;50.920;12.238;2022-09-12T02:20:00;4.38;;;3.63;;
21000;SDS011;10658;50.920;12.238;2022-09-12T02:24:06;3.78;;;3.47;;
21000;SDS011;10658;50.920;12.238;2022-09-12T02:28:10;4.40;;;3.70;;
21000;SDS011;10658;50.920;12.238;2022-09-12T02:32:29;4.55;;;3.60;;
21000;SDS011;10658;50.920;12.238;2022-09-12T02:36:38;4.20;;;3.65;;
21000;SDS011;10658;50.920;12.238;2022-09-12T02:40:43;11.30;;;4.78;;
21000;SDS011;10658;50.920;12.238;2022-09-12T02:44:44;4.43;;;3.88;;
21000;SDS011;10658;50.920;12.238;2022-09-12T02:48:46;5.47;;;3.88;;
21000;SDS011;10658;50.920;12.238;2022-09-12T02:52:46;8.32;;;4.30;;
21000;SDS011;10658;50.920;12.238;2022-09-12T02:56:48;5.57;;;4.15;;
21000;SDS011;10658;50.920;12.238;2022-09-12T03:09:44;5.68;;;3.95;;
21000;SDS011;10658;50.920;12.238;2022-09-12T03:13:56;5.80;;;3.40;;
21000;SDS011;10658;50.920;12.238;2022-09-12T03:18:40;5.13;;;3.58;;
21000;SDS011;10658;50.920;12.238;2022-09-12T03:22:51;3.95;;;3.05;;
21000;SDS011;10658;50.920;12.238;2022-09-12T03:31:12;3.25;;;2.92;;
21000;SDS011;10658;50.920;12.238;2022-09-12T03:35:17;4.30;;;3.55;;
21000;SDS011;10658;50.920;12.238;2022-09-12T03:39:22;3.95;;;3.55;;
21000;SDS011;10658;50.920;12.238;2022-09-12T03:43:23;4.43;;;3.90;;
21000;SDS011;10658;50.920;12.238;2022-09-12T03:47:24;5.22;;;2.97;;
21000;SDS011;10658;50.920;12.238;2022-09-12T03:51:25;3.30;;;2.90;;
21000;SDS011;10658;50.920;12.238;2022-09-12T03:55:28;3.83;;;3.50;;
21000;SDS011;10658;50.920;12.238;2022-09-12T03:59:29;3.13;;;2.83;;
21000;SDS011;10658;50.920;12.238;2022-09-12T04:03:31;3.63;;;3.13;;
21000;SDS011;10658;50.920;12.238;2022-09-12T04:07:32;3.90;;;3.45;;
21000;SDS011;10658;50.920;12.238;2022-09-12T04:11:34;5.90;;;4.00;;
21000;SDS011;10658;50.920;12.238;2022-09-12T04:15:35;22.17;;;5.50;;
21000;SDS011;10658;50.920;12.238;2022-09-12T04:19:36;3.17;;;2.88;;
21000;SDS011;10658;50.920;12.238;2022-09-12T04:23:37;9.27;;;4.07;;
21000;SDS011;10658;50.920;12.238;2022-09-12T04:27:38;5.10;;;3.88;;
21000;SDS011;10658;50.920;12.238;2022-09-12T04:31:39;4.40;;;3.75;;
21000;SDS011;10658;50.920;12.238;2022-09-12T04:35:42;9.73;;;4.32;;
21000;SDS011;10658;50.920;12.238;2022-09-12T04:39:45;7.18;;;4.40;;
21000;SDS011;10658;50.920;12.238;2022-09-12T04:43:56;6.97;;;4.30;;
21000;SDS011;10658;50.920;12.238;2022-09-12T04:48:01;4.28;;;3.80;;
21000;SDS011;10658;50.920;12.238;2022-09-12T04:52:04;5.07;;;3.53;;
21000;SDS011;10658;50.920;12.238;2022-09-12T04:56:09;4.25;;;3.58;;
21000;SDS011;10658;50.920;12.238;2022-09-12T05:00:11;4.47;;;4.03;;
21000;SDS011;10658;50.920;12.238;2022-09-12T05:04:14;4.70;;;3.97;;
21000;SDS011;10658;50.920;12.238;2022-09-12T05:08:15;4.30;;;3.50;;
21000;SDS011;10658;50.920;12.238;2022-09-12T05:12:16;5.13;;;3.88;;
21000;SDS011;10658;50.920;12.238;2022-09-12T05:16:17;3.67;;;3.38;;
21000;SDS011;10658;50.920;12.238;2022-09-12T05:20:18;4.00;;;3.60;;
21000;SDS011;10658;50.920;12.238;2022-09-12T05:24:21;7.05;;;4.15;;
21000;SDS011;10658;50.920;12.238;2022-09-12T05:28:23;5.55;;;4.00;;
21000;SDS011;10658;50.920;12.238;2022-09-12T05:32:29;6.43;;;3.65;;
21000;SDS011;10658;50.920;12.238;2022-09-12T05:36:32;3.97;;;3.13;;
21000;SDS011;10658;50.920;12.238;2022-09-12T05:40:34;29.25;;;6.35;;
21000;SDS011;10658;50.920;12.238;2022-09-12T05:44:35;5.18;;;4.13;;
21000;SDS011;10658;50.920;12.238;2022-09-12T05:48:37;5.68;;;4.20;;
21000;SDS011;10658;50.920;12.238;2022-09-12T05:52:39;6.13;;;4.07;;
21000;SDS011;10658;50.920;12.238;2022-09-12T06:01:06;4.63;;;3.90;;
21000;SDS011;10658;50.920;12.238;2022-09-12T06:05:31;6.80;;;4.68;;
21000;SDS011;10658;50.920;12.238;2022-09-12T06:09:33;6.80;;;5.28;;
21000;SDS011;10658;50.920;12.238;2022-09-12T06:13:35;7.53;;;6.00;;
21000;SDS011;10658;50.920;12.238;2022-09-12T06:17:37;6.70;;;5.47;;
21000;SDS011;10658;50.920;12.238;2022-09-12T06:21:38;10.00;;;6.60;;
21000;SDS011;10658;50.920;12.238;2022-09-12T06:25:44;7.10;;;5.47;;
21000;SDS011;10658;50.920;12.238;2022-09-12T06:29:47;6.85;;;6.10;;
21000;SDS011;10658;50.920;12.238;2022-09-12T06:33:49;6.57;;;5.90;;
21000;SDS011;10658;50.920;12.238;2022-09-12T06:37:51;8.98;;;6.57;;
21000;SDS011;10658;50.920;12.238;2022-09-12T06:41:53;8.70;;;6.10;;
21000;SDS011;10658;50.920;12.238;2022-09-12T06:46:06;9.80;;;6.60;;
21000;SDS011;10658;50.920;12.238;2022-09-12T06:50:08;10.13;;;7.43;;
21000;SDS011;10658;50.920;12.238;2022-09-12T06:54:11;11.07;;;7.90;;
21000;SDS011;10658;50.920;12.238;2022-09-12T06:58:12;11.05;;;8.05;;
21000;SDS011;10658;50.920;12.238;2022-09-12T07:02:13;13.00;;;8.05;;
21000;SDS011;10658;50.920;12.238;2022-09-12T07:06:16;11.73;;;7.20;;
21000;SDS011;10658;50.920;12.238;2022-09-12T07:10:18;8.90;;;6.70;;
21000;SDS011;10658;50.920;12.238;2022-09-12T07:14:20;10.18;;;6.72;;
21000;SDS011;10658;50.920;12.238;2022-09-12T07:18:22;12.98;;;7.78;;
21000;SDS011;10658;50.920;12.238;2022-09-12T07:22:23;12.80;;;8.23;;
21000;SDS011;10658;50.920;12.238;2022-09-12T07:26:25;14.60;;;7.68;;
21000;SDS011;10658;50.920;12.238;2022-09-12T07:30:29;11.98;;;8.00;;
21000;SDS011;10658;50.920;12.238;2022-09-12T07:34:30;12.45;;;7.55;;
21000;SDS011;10658;50.920;12.238;2022-09-12T07:38:31;13.70;;;7.65;;
21000;SDS011;10658;50.920;12.238;2022-09-12T07:42:33;13.18;;;7.40;;
21000;SDS011;10658;50.920;12.238;2022-09-12T07:46:35;11.65;;;7.43;;
21000;SDS011;10658;50.920;12.238;2022-09-12T07:50:37;15.90;;;8.70;;
21000;SDS011;10658;50.920;12.238;2022-09-12T07:54:38;10.98;;;7.78;;
21000;SDS011;10658;50.920;12.238;2022-09-12T07:58:40;14.07;;;8.07;;
21000;SDS011;10658;50.920;12.238;2022-09-12T08:02:42;11.55;;;7.85;;
21000;SDS011;10658;50.920;12.238;2022-09-12T08:06:44;16.13;;;8.70;;
21000;SDS011;10658;50.920;12.238;2022-09-12T08:10:46;15.55;;;8.65;;
21000;SDS011;10658;50.920;12.238;2022-09-12T08:14:48;14.88;;;8.93;;
21000;SDS011;10658;50.920;12.238;2022-09-12T08:18:49;15.57;;;8.63;;
21000;SDS011;10658;50.920;12.238;2022-09-12T08:22:51;15.23;;;7.45;;
21000;SDS011;10658;50.920;12.238;2022-09-12T08:26:52;14.80;;;9.05;;
21000;SDS011;10658;50.920;12.238;2022-09-12T08:30:53;9.93;;;7.18;;
21000;SDS011;10658;50.920;12.238;2022-09-12T08:34:54;12.38;;;7.20;;
21000;SDS011;10658;50.920;12.238;2022-09-12T08:38:57;10.93;;;7.30;;
21000;SDS011;10658;50.920;12.238;2022-09-12T08:43:25;11.77;;;7.25;;
21000;SDS011;10658;50.920;12.238;2022-09-12T08:47:37;13.05;;;8.43;;
21000;SDS011;10658;50.920;12.238;2022-09-12T08:51:41;9.07;;;7.72;;
21000;SDS011;10658;50.920;12.238;2022-09-12T08:55:43;10.10;;;6.97;;
21000;SDS011;10658;50.920;12.238;2022-09-12T08:59:49;11.07;;;7.78;;
21000;SDS011;10658;50.920;12.238;2022-09-12T09:08:50;10.50;;;6.78;;
21000;SDS011;10658;50.920;12.238;2022-09-12T09:18:17;11.05;;;6.65;;
21000;SDS011;10658;50.920;12.238;2022-09-12T09:26:54;9.70;;;6.28;;
21000;SDS011;10658;50.920;12.238;2022-09-12T09:31:00;9.25;;;5.35;;
21000;SDS011;10658;50.920;12.238;2022-09-12T09:35:14;7.00;;;5.03;;
21000;SDS011;10658;50.920;12.238;2022-09-12T09:39:33;4.43;;;3.78;;
21000;SDS011;10658;50.920;12.238;2022-09-12T09:43:45;5.03;;;4.20;;
21000;SDS011;10658;50.920;12.238;2022-09-12T09:47:51;6.95;;;3.85;;
21000;SDS011;10658;50.920;12.238;2022-09-12T09:51:58;4.82;;;4.28;;
21000;SDS011;10658;50.920;12.238;2022-09-12T09:56:03;4.88;;;3.53;;
21000;SDS011;10658;50.920;12.238;2022-09-12T10:04:28;4.32;;;3.30;;
21000;SDS011;10658;50.920;12.238;2022-09-12T10:08:32;4.95;;;3.50;;
21000;SDS011;10658;50.920;12.238;2022-09-12T10:12:36;3.92;;;2.67;;
21000;SDS011;10658;50.920;12.238;2022-09-12T10:16:48;3.67;;;2.65;;
21000;SDS011;10658;50.920;12.238;2022-09-12T10:20:52;2.10;;;1.65;;
21000;SDS011;10658;50.920;12.238;2022-09-12T10:24:55;3.10;;;2.00;;
21000;SDS011;10658;50.920;12.238;2022-09-12T10:29:02;1.88;;;1.67;;
21000;SDS011;10658;50.920;12.238;2022-09-12T10:33:42;3.38;;;1.95;;
21000;SDS011;10658;50.920;12.238;2022-09-12T10:42:00;2.90;;;1.95;;
21000;SDS011;10658;50.920;12.238;2022-09-12T10:50:20;2.03;;;1.70;;
21000;SDS011;10658;50.920;12.238;2022-09-12T10:54:26;2.50;;;1.85;;
21000;SDS011;10658;50.920;12.238;2022-09-12T10:58:32;2.55;;;1.98;;
21000;SDS011;10658;50.920;12.238;2022-09-12T11:33:14;2.10;;;1.90;;
21000;SDS011;10658;50.920;12.238;2022-09-12T11:37:29;2.92;;;1.70;;
21000;SDS011;10658;50.920;12.238;2022-09-12T11:41:56;2.17;;;1.90;;
21000;SDS011;10658;50.920;12.238;2022-09-12T11:46:21;2.38;;;2.03;;
21000;SDS011;10658;50.920;12.238;2022-09-12T11:50:39;2.88;;;2.33;;
21000;SDS011;10658;50.920;12.238;2022-09-12T11:59:02;4.65;;;2.58;;
21000;SDS011;10658;50.920;12.238;2022-09-12T12:07:45;2.72;;;2.05;;
21000;SDS011;10658;50.920;12.238;2022-09-12T12:16:46;1.85;;;1.65;;
21000;SDS011;10658;50.920;12.238;2022-09-12T12:20:40;2.63;;;1.60;;
21000;SDS011;10658;50.920;12.238;2022-09-12T12:41:50;2.78;;;1.60;;
21000;SDS011;10658;50.920;12.238;2022-09-12T12:45:57;1.90;;;1.70;;
21000;SDS011;10658;50.920;12.238;2022-09-12T12:50:05;3.47;;;1.90;;
21000;SDS011;10658;50.920;12.238;2022-09-12T12:58:41;3.45;;;1.77;;
21000;SDS011;10658;50.920;12.238;2022-09-12T13:02:48;1.92;;;1.70;;
21000;SDS011;10658;50.920;12.238;2022-09-12T13:07:02;1.90;;;1.50;;
21000;SDS011;10658;50.920;12.238;2022-09-12T13:11:15;2.10;;;1.50;;
21000;SDS011;10658;50.920;12.238;2022-09-12T13:19:39;1.55;;;1.42;;
21000;SDS011;10658;50.920;12.238;2022-09-12T13:23:43;1.92;;;1.52;;
21000;SDS011;10658;50.920;12.238;2022-09-12T13:32:12;2.40;;;1.67;;
21000;SDS011;10658;50.920;12.238;2022-09-12T13:45:20;1.73;;;1.52;;
21000;SDS011;10658;50.920;12.238;2022-09-12T13:49:29;1.40;;;1.30;;
21000;SDS011;10658;50.920;12.238;2022-09-12T13:53:52;1.77;;;1.63;;
21000;SDS011;10658;50.920;12.238;2022-09-12T13:57:58;2.03;;;1.45;;
21000;SDS011;10658;50.920;12.238;2022-09-12T14:02:26;2.58;;;1.70;;
21000;SDS011;10658;50.920;12.238;2022-09-12T14:06:27;2.33;;;1.92;;
21000;SDS011;10658;50.920;12.238;2022-09-12T14:10:56;2.95;;;1.80;;
21000;SDS011;10658;50.920;12.238;2022-09-12T14:19:03;3.03;;;1.58;;
21000;SDS011;10658;50.920;12.238;2022-09-12T14:27:40;2.80;;;1.63;;
21000;SDS011;10658;50.920;12.238;2022-09-12T14:31:46;3.38;;;1.85;;
21000;SDS011;10658;50.920;12.238;2022-09-12T14:36:45;1.83;;;1.67;;
21000;SDS011;10658;50.920;12.238;2022-09-12T14:40:40;2.38;;;1.95;;
21000;SDS011;10658;50.920;12.238;2022-09-12T14:44:51;3.28;;;1.88;;
21000;SDS011;10658;50.920;12.238;2022-09-12T14:53:38;2.70;;;2.00;;
21000;SDS011;10658;50.920;12.238;2022-09-12T14:57:54;3.55;;;1.92;;
21000;SDS011;10658;50.920;12.238;2022-09-12T15:02:26;7.82;;;2.22;;
21000;SDS011;10658;50.920;12.238;2022-09-12T15:06:28;2.40;;;1.67;;
21000;SDS011;10658;50.920;12.238;2022-09-12T15:10:33;3.60;;;2.17;;
21000;SDS011;10658;50.920;12.238;2022-09-12T15:18:59;3.20;;;1.80;;
21000;SDS011;10658;50.920;12.238;2022-09-12T15:28:42;4.07;;;2.33;;
21000;SDS011;10658;50.920;12.238;2022-09-12T15:32:43;3.58;;;2.15;;
21000;SDS011;10658;50.920;12.238;2022-09-12T15:36:44;3.40;;;1.80;;
21000;SDS011;10658;50.920;12.238;2022-09-12T15:40:48;3.33;;;2.35;;
21000;SDS011;10658;50.920;12.238;2022-09-12T15:44:53;4.07;;;2.65;;
21000;SDS011;10658;50.920;12.238;2022-09-12T15:48:54;6.30;;;2.10;;
21000;SDS011;10658;50.920;12.238;2022-09-12T15:52:55;3.55;;;2.10;;
21000;SDS011;10658;50.920;12.238;2022-09-12T15:56:57;4.20;;;2.45;;
21000;SDS011;10658;50.920;12.238;2022-09-12T16:00:58;2.00;;;1.77;;
21000;SDS011;10658;50.920;12.238;2022-09-12T16:05:01;3.88;;;2.50;;
21000;SDS011;10658;50.920;12.238;2022-09-12T16:09:02;3.22;;;2.00;;
21000;SDS011;10658;50.920;12.238;2022-09-12T16:13:03;3.15;;;2.08;;
21000;SDS011;10658;50.920;12.238;2022-09-12T16:17:04;4.25;;;2.35;;
21000;SDS011;10658;50.920;12.238;2022-09-12T16:21:05;4.65;;;2.97;;
21000;SDS011;10658;50.920;12.238;2022-09-12T16:25:07;4.35;;;3.20;;
21000;SDS011;10658;50.920;12.238;2022-09-12T16:29:09;3.53;;;2.15;;
21000;SDS011;10658;50.920;12.238;2022-09-12T16:33:12;3.25;;;1.90;;
21000;SDS011;10658;50.920;12.238;2022-09-12T16:37:13;2.58;;;1.77;;
21000;SDS011;10658;50.920;12.238;2022-09-12T16:41:15;3.28;;;1.80;;
21000;SDS011;10658;50.920;12.238;2022-09-12T16:45:17;2.85;;;2.05;;
21000;SDS011;10658;50.920;12.238;2022-09-12T16:49:20;2.10;;;1.90;;
21000;SDS011;10658;50.920;12.238;2022-09-12T16:53:21;3.53;;;1.98;;
21000;SDS011;10658;50.920;12.238;2022-09-12T16:57:22;2.45;;;1.80;;
21000;SDS011;10658;50.920;12.238;2022-09-12T17:01:24;3.83;;;2.03;;
21000;SDS011;10658;50.920;12.238;2022-09-12T17:05:26;2.80;;;1.73;;
21000;SDS011;10658;50.920;12.238;2022-09-12T17:09:30;1.60;;;1.50;;
21000;SDS011;10658;50.920;12.238;2022-09-12T17:13:31;2.30;;;2.10;;
21000;SDS011;10658;50.920;12.238;2022-09-12T17:17:32;2.50;;;1.67;;
21000;SDS011;10658;50.920;12.238;2022-09-12T17:21:33;1.85;;;1.75;;
21000;SDS011;10658;50.920;12.238;2022-09-12T17:25:35;1.98;;;1.73;;
21000;SDS011;10658;50.920;12.238;2022-09-12T17:29:36;2.20;;;1.92;;
21000;SDS011;10658;50.920;12.238;2022-09-12T17:33:38;2.63;;;2.13;;
21000;SDS011;10658;50.920;12.238;2022-09-12T17:37:40;2.70;;;2.08;;
21000;SDS011;10658;50.920;12.238;2022-09-12T17:41:41;1.92;;;1.75;;
21000;SDS011;10658;50.920;12.238;2022-09-12T17:45:42;4.20;;;2.53;;
21000;SDS011;10658;50.920;12.238;2022-09-12T17:49:43;3.42;;;2.75;;
21000;SDS011;10658;50.920;12.238;2022-09-12T17:53:44;3.03;;;2.30;;
21000;SDS011;10658;50.920;12.238;2022-09-12T17:57:45;4.13;;;2.40;;
21000;SDS011;10658;50.920;12.238;2022-09-12T18:01:46;2.63;;;2.42;;
21000;SDS011;10658;50.920;12.238;2022-09-12T18:06:05;2.72;;;2.45;;
21000;SDS011;10658;50.920;12.238;2022-09-12T18:10:06;3.03;;;2.72;;
21000;SDS011;10658;50.920;12.238;2022-09-12T18:14:07;2.70;;;2.33;;
21000;SDS011;10658;50.920;12.238;2022-09-12T18:18:08;2.25;;;2.08;;
21000;SDS011;10658;50.920;12.238;2022-09-12T18:22:10;3.20;;;2.75;;
21000;SDS011;10658;50.920;12.238;2022-09-12T18:26:11;3.03;;;2.47;;
21000;SDS011;10658;50.920;12.238;2022-09-12T18:30:12;4.40;;;3.00;;
21000;SDS011;10658;50.920;12.238;2022-09-12T18:34:16;3.20;;;2.67;;
21000;SDS011;10658;50.920;12.238;2022-09-12T18:38:29;2.92;;;2.63;;
21000;SDS011;10658;50.920;12.238;2022-09-12T18:43:08;2.88;;;2.58;;
21000;SDS011;10658;50.920;12.238;2022-09-12T18:47:14;2.72;;;2.42;;
21000;SDS011;10658;50.920;12.238;2022-09-12T18:51:19;2.95;;;2.60;;
21000;SDS011;10658;50.920;12.238;2022-09-12T18:55:21;3.63;;;2.90;;
21000;SDS011;10658;50.920;12.238;2022-09-12T18:59:23;3.10;;;2.80;;
21000;SDS011;10658;50.920;12.238;2022-09-12T19:03:24;3.35;;;3.10;;
21000;SDS011;10658;50.920;12.238;2022-09-12T19:07:24;2.58;;;2.38;;
21000;SDS011;10658;50.920;12.238;2022-09-12T19:11:27;3.22;;;2.92;;
21000;SDS011;10658;50.920;12.238;2022-09-12T19:15:29;3.50;;;2.70;;
21000;SDS011;10658;50.920;12.238;2022-09-12T19:19:30;3.70;;;2.78;;
21000;SDS011;10658;50.920;12.238;2022-09-12T19:23:32;4.25;;;2.60;;
21000;SDS011;10658;50.920;12.238;2022-09-12T19:27:34;3.80;;;2.97;;
21000;SDS011;10658;50.920;12.238;2022-09-12T19:31:36;3.67;;;2.85;;
21000;SDS011;10658;50.920;12.238;2022-09-12T19:35:37;3.30;;;2.78;;
21000;SDS011;10658;50.920;12.238;2022-09-12T19:39:38;3.83;;;2.75;;
21000;SDS011;10658;50.920;12.238;2022-09-12T19:43:42;4.28;;;3.20;;
21000;SDS011;10658;50.920;12.238;2022-09-12T19:47:43;3.45;;;3.10;;
21000;SDS011;10658;50.920;12.238;2022-09-12T19:51:46;5.88;;;3.33;;
21000;SDS011;10658;50.920;12.238;2022-09-12T19:55:47;3.50;;;2.75;;
21000;SDS011;10658;50.920;12.238;2022-09-12T19:59:51;3.63;;;3.05;;
21000;SDS011;10658;50.920;12.238;2022-09-12T20:03:52;4.10;;;3.70;;
21000;SDS011;10658;50.920;12.238;2022-09-12T20:07:53;5.20;;;3.03;;
21000;SDS011;10658;50.920;12.238;2022-09-12T20:11:54;5.00;;;3.53;;
21000;SDS011;10658;50.920;12.238;2022-09-12T20:15:54;4.13;;;2.92;;
21000;SDS011;10658;50.920;12.238;2022-09-12T20:19:56;4.47;;;3.63;;
21000;SDS011;10658;50.920;12.238;2022-09-12T20:24:08;5.85;;;3.20;;
21000;SDS011;10658;50.920;12.238;2022-09-12T20:28:11;3.80;;;3.40;;
21000;SDS011;10658;50.920;12.238;2022-09-12T20:32:12;4.18;;;3.33;;
21000;SDS011;10658;50.920;12.238;2022-09-12T20:36:14;4.00;;;3.17;;
21000;SDS011;10658;50.920;12.238;2022-09-12T20:40:17;4.30;;;3.60;;
21000;SDS011;10658;50.920;12.238;2022-09-12T20:44:18;4.22;;;3.83;;
21000;SDS011;10658;50.920;12.238;2022-09-12T20:48:20;4.10;;;3.58;;
21000;SDS011;10658;50.920;12.238;2022-09-12T20:52:21;4.60;;;3.53;;
21000;SDS011;10658;50.920;12.238;2022-09-12T20:56:23;4.57;;;4.18;;
21000;SDS011;10658;50.920;12.238;2022-09-12T21:00:26;4.30;;;3.50;;
21000;SDS011;10658;50.920;12.238;2022-09-12T21:04:28;5.45;;;4.07;;
21000;SDS011;10658;50.920;12.238;2022-09-12T21:08:30;4.50;;;4.05;;
21000;SDS011;10658;50.920;12.238;2022-09-12T21:12:32;4.90;;;4.18;;
21000;SDS011;10658;50.920;12.238;2022-09-12T21:16:34;5.43;;;3.90;;
21000;SDS011;10658;50.920;12.238;2022-09-12T21:20:37;6.50;;;4.13;;
21000;SDS011;10658;50.920;12.238;2022-09-12T21:24:39;5.53;;;4.00;;
21000;SDS011;10658;50.920;12.238;2022-09-12T21:28:39;4.35;;;3.95;;
21000;SDS011;10658;50.920;12.238;2022-09-12T21:32:40;5.05;;;3.90;;
21000;SDS011;10658;50.920;12.238;2022-09-12T21:36:41;4.47;;;3.97;;
21000;SDS011;10658;50.920;12.238;2022-09-12T21:40:42;4.68;;;3.95;;
21000;SDS011;10658;50.920;12.238;2022-09-12T21:44:43;4.65;;;4.07;;
21000;SDS011;10658;50.920;12.238;2022-09-12T21:48:44;5.63;;;4.30;;
21000;SDS011;10658;50.920;12.238;2022-09-12T21:52:45;6.65;;;4.85;;
21000;SDS011;10658;50.920;12.238;2022-09-12T21:56:46;5.20;;;4.70;;
21000;SDS011;10658;50.920;12.238;2022-09-12T22:00:47;5.13;;;4.60;;
21000;SDS011;10658;50.920;12.238;2022-09-12T22:04:49;5.10;;;4.57;;
21000;SDS011;10658;50.920;12.238;2022-09-12T22:08:50;4.97;;;4.15;;
21000;SDS011;10658;50.920;12.238;2022-09-12T22:12:51;4.85;;;4.35;;
21000;SDS011;10658;50.920;12.238;2022-09-12T22:16:52;5.45;;;4.18;;
21000;SDS011;10658;50.920;12.238;2022-09-12T22:21:00;5.72;;;4.70;;
21000;SDS011;10658;50.920;12.238;2022-09-12T22:25:06;5.03;;;4.53;;
21000;SDS011;10658;50.920;12.238;2022-09-12T22:29:10;6.43;;;4.63;;
21000;SDS011;10658;50.920;12.238;2022-09-12T22:33:15;8.25;;;5.00;;
21000;SDS011;10658;50.920;12.238;2022-09-12T22:37:16;5.22;;;4.35;;
21000;SDS011;10658;50.920;12.238;2022-09-12T22:41:17;5.75;;;4.60;;
21000;SDS011;10658;50.920;12.238;2022-09-12T22:45:18;4.95;;;4.15;;
21000;SDS011;10658;50.920;12.238;2022-09-12T22:49:19;4.72;;;4.00;;
21000;SDS011;10658;50.920;12.238;2022-09-12T22:53:20;5.10;;;4.25;;
21000;SDS011;10658;50.920;12.238;2022-09-12T22:57:21;6.70;;;4.68;;
21000;SDS011;10658;50.920;12.238;2022-09-12T23:01:22;4.70;;;3.90;;
21000;SDS011;10658;50.920;12.238;2022-09-12T23:05:23;5.38;;;4.40;;
21000;SDS011;10658;50.920;12.238;2022-09-12T23:09:24;7.38;;;4.45;;
21000;SDS011;10658;50.920;12.238;2022-09-12T23:13:25;5.57;;;4.85;;
21000;SDS011;10658;50.920;12.238;2022-09-12T23:17:26;5.47;;;4.25;;
21000;SDS011;10658;50.920;12.238;2022-09-12T23:21:27;5.22;;;4.30;;
21000;SDS011;10658;50.920;12.238;2022-09-12T23:25:29;4.82;;;4.13;;
21000;SDS011;10658;50.920;12.238;2022-09-12T23:29:30;5.20;;;4.10;;
21000;SDS011;10658;50.920;12.238;2022-09-12T23:33:33;4.85;;;3.88;;
21000;SDS011;10658;50.920;12.238;2022-09-12T23:37:36;4.68;;;3.72;;
21000;SDS011;10658;50.920;12.238;2022-09-12T23:41:37;6.43;;;4.30;;
21000;SDS011;10658;50.920;12.238;2022-09-12T23:45:39;4.00;;;3.63;;
21000;SDS011;10658;50.920;12.238;2022-09-12T23:49:40;4.80;;;4.07;;
21000;SDS011;10658;50.920;12.238;2022-09-12T23:53:42;4.93;;;4.25;;
21000;SDS011;10658;50.920;12.238;2022-09-12T23:57:43;4.13;;;3.72;;
